Time;durP1;ratioP1;P1;durP2;ratioP2;P2;SDS_P1;SDS_P2;PMS_P1;PMS_P2;Temp;Humidity;BMP_temperature;BMP_pressure;BME280_temperature;BME280_humidity;BME280_pressure;Samples;Min_cycle;Max_cycle;Signal;HPM_P1;HPM_P2
2021/10/17 00:00:58;;;;;;;18.80;11.17;;;3.30;97.40;;;;;;2089638;28;20632;-68
2021/10/17 00:01:59;;;;;;;20.90;11.80;;;3.40;97.40;;;;;;2089296;28;20180;-68
2021/10/17 00:03:00;;;;;;;18.50;10.63;;;3.40;97.40;;;;;;2089818;28;20177;-68
2021/10/17 00:04:01;;;;;;;18.42;10.75;;;3.30;97.40;;;;;;2089423;28;20276;-68
2021/10/17 00:05:03;;;;;;;17.80;10.83;;;3.30;97.30;;;;;;2089054;28;20190;-68
2021/10/17 00:06:04;;;;;;;18.38;11.02;;;3.40;97.30;;;;;;2089692;28;20265;-67
2021/10/17 00:07:04;;;;;;;18.53;10.63;;;3.40;97.30;;;;;;2089140;28;20732;-68
2021/10/17 00:08:07;;;;;;;15.30;9.63;;;3.40;97.40;;;;;;2088749;28;20205;-68
2021/10/17 00:09:08;;;;;;;15.95;10.80;;;3.30;97.60;;;;;;2088862;28;20172;-67
2021/10/17 00:10:13;;;;;;;17.00;10.50;;;3.40;97.40;;;;;;2088871;28;20273;-67
2021/10/17 00:11:14;;;;;;;17.30;9.73;;;3.30;97.20;;;;;;2088430;28;20160;-68
2021/10/17 00:12:14;;;;;;;17.30;10.00;;;3.30;97.20;;;;;;2088909;28;20216;-68
2021/10/17 00:13:15;;;;;;;18.90;11.23;;;3.30;97.20;;;;;;2089618;28;20250;-67
2021/10/17 00:14:16;;;;;;;20.47;11.20;;;3.30;97.20;;;;;;2088769;28;20168;-68
2021/10/17 00:15:18;;;;;;;18.60;11.00;;;3.30;97.30;;;;;;2088799;28;20205;-67
2021/10/17 00:16:20;;;;;;;15.25;10.20;;;3.30;97.20;;;;;;2088658;28;20176;-67
2021/10/17 00:17:20;;;;;;;15.60;10.23;;;3.30;97.30;;;;;;2088883;28;20180;-68
2021/10/17 00:18:21;;;;;;;16.80;9.90;;;3.20;97.20;;;;;;2088647;28;20261;-68
2021/10/17 00:19:22;;;;;;;16.53;11.17;;;3.20;97.20;;;;;;2088936;28;20168;-68
2021/10/17 00:20:24;;;;;;;16.43;11.00;;;3.20;97.30;;;;;;2088879;28;20173;-67
2021/10/17 00:21:25;;;;;;;21.52;12.00;;;3.20;97.00;;;;;;2088296;28;20589;-68
2021/10/17 00:22:25;;;;;;;18.87;10.27;;;3.20;97.10;;;;;;2089468;28;20269;-68
2021/10/17 00:23:26;;;;;;;19.23;10.97;;;3.20;97.30;;;;;;2089101;28;20216;-67
2021/10/17 00:24:27;;;;;;;20.53;11.93;;;3.20;97.40;;;;;;2088761;28;20279;-68
2021/10/17 00:25:27;;;;;;;19.83;11.27;;;3.20;97.30;;;;;;2089393;28;20672;-67
2021/10/17 00:26:28;;;;;;;16.37;10.57;;;3.10;97.00;;;;;;2089370;28;20273;-67
2021/10/17 00:27:29;;;;;;;18.43;11.60;;;3.10;97.30;;;;;;2088682;28;20193;-67
2021/10/17 00:28:29;;;;;;;16.13;10.30;;;3.00;97.70;;;;;;2088851;28;20181;-67
2021/10/17 00:29:30;;;;;;;20.03;11.07;;;3.00;97.80;;;;;;2089487;28;20181;-67
2021/10/17 00:30:31;;;;;;;15.63;10.57;;;3.00;97.70;;;;;;2089459;28;20216;-68
2021/10/17 00:31:32;;;;;;;17.63;11.67;;;3.00;97.70;;;;;;2088308;28;20239;-68
2021/10/17 00:32:32;;;;;;;21.33;11.27;;;3.00;97.60;;;;;;2088819;28;20228;-68
2021/10/17 00:33:33;;;;;;;19.57;11.03;;;3.00;97.50;;;;;;2088838;28;20195;-68
2021/10/17 00:34:34;;;;;;;19.23;10.63;;;3.00;97.40;;;;;;2088962;28;20184;-68
2021/10/17 00:35:35;;;;;;;16.77;10.73;;;3.00;97.30;;;;;;2089368;28;20212;-68
2021/10/17 00:36:36;;;;;;;16.45;11.27;;;3.00;97.20;;;;;;2089312;28;20183;-68
2021/10/17 00:37:37;;;;;;;19.20;11.47;;;3.00;97.30;;;;;;2089453;28;20238;-67
2021/10/17 00:38:38;;;;;;;17.77;10.73;;;3.00;97.30;;;;;;2089377;28;20177;-68
2021/10/17 00:39:39;;;;;;;21.63;13.33;;;3.00;97.40;;;;;;2089471;28;20176;-68
2021/10/17 00:40:39;;;;;;;22.37;13.00;;;3.00;97.40;;;;;;2089409;28;20177;-68
2021/10/17 00:41:41;;;;;;;22.27;12.37;;;3.00;97.30;;;;;;2089260;28;20180;-68
2021/10/17 00:42:44;;;;;;;21.42;11.55;;;3.00;97.40;;;;;;2088714;28;20231;-68
2021/10/17 00:43:46;;;;;;;18.52;11.75;;;3.00;97.20;;;;;;2089037;28;20764;-68
2021/10/17 00:44:58;;;;;;;18.80;11.52;;;3.00;97.30;;;;;;2089432;28;20268;-68
2021/10/17 00:45:59;;;;;;;18.60;11.25;;;3.00;97.50;;;;;;2088929;28;20204;-68
2021/10/17 00:47:00;;;;;;;17.63;11.37;;;3.00;97.90;;;;;;2088778;28;20276;-67
2021/10/17 00:48:04;;;;;;;17.47;11.13;;;3.00;97.40;;;;;;2088838;28;20266;-68
2021/10/17 00:49:04;;;;;;;22.60;13.02;;;3.00;97.50;;;;;;2088733;28;20184;-68
2021/10/17 00:50:08;;;;;;;18.17;11.13;;;2.90;97.30;;;;;;2089421;28;20647;-68
2021/10/17 00:51:10;;;;;;;17.27;10.20;;;2.90;97.30;;;;;;2088552;28;20619;-67
2021/10/17 00:52:10;;;;;;;17.08;10.82;;;2.90;97.20;;;;;;2088884;28;20189;-68
2021/10/17 00:53:11;;;;;;;22.13;13.43;;;2.90;97.00;;;;;;2089354;28;20276;-68
2021/10/17 00:54:14;;;;;;;20.87;12.93;;;2.90;97.00;;;;;;2089482;28;20647;-67
2021/10/17 00:55:17;;;;;;;23.42;13.75;;;2.90;96.90;;;;;;2088752;28;20282;-67
2021/10/17 00:56:19;;;;;;;20.58;12.52;;;2.90;96.80;;;;;;2078426;28;20181;-67
2021/10/17 00:57:20;;;;;;;24.17;13.90;;;2.90;97.10;;;;;;2074027;28;20186;-68
2021/10/17 00:58:20;;;;;;;23.37;13.77;;;2.90;97.30;;;;;;2075049;28;20189;-68
2021/10/17 00:59:21;;;;;;;22.10;12.83;;;2.90;97.40;;;;;;2080447;28;20595;-68
2021/10/17 01:00:22;;;;;;;19.20;11.20;;;2.90;97.60;;;;;;2081217;28;20543;-68
2021/10/17 01:01:23;;;;;;;22.23;12.50;;;2.90;97.70;;;;;;2080779;28;20657;-68
2021/10/17 01:02:23;;;;;;;25.23;13.07;;;2.90;97.70;;;;;;2081051;28;20185;-68
2021/10/17 01:03:24;;;;;;;20.67;12.37;;;2.90;97.80;;;;;;2081046;28;20261;-67
2021/10/17 01:04:25;;;;;;;23.40;12.83;;;2.90;97.90;;;;;;2081168;28;20389;-68
2021/10/17 01:05:25;;;;;;;23.87;13.23;;;2.90;98.00;;;;;;2081105;28;20652;-68
2021/10/17 01:06:27;;;;;;;24.23;12.93;;;3.00;98.10;;;;;;2080999;28;20212;-67
2021/10/17 01:07:28;;;;;;;20.30;11.57;;;3.00;98.10;;;;;;2081089;28;20589;-68
2021/10/17 01:08:28;;;;;;;21.53;12.30;;;3.00;98.00;;;;;;2080333;28;20276;-68
2021/10/17 01:09:29;;;;;;;17.30;11.67;;;3.00;97.90;;;;;;2080316;28;20183;-68
2021/10/17 01:10:30;;;;;;;19.33;11.90;;;2.90;97.70;;;;;;2081051;28;20190;-68
2021/10/17 01:11:46;;;;;;;19.60;12.17;;;3.00;97.60;;;;;;2080886;28;20207;-67
2021/10/17 01:12:47;;;;;;;18.60;11.23;;;2.90;97.40;;;;;;2080391;28;20182;-67
2021/10/17 01:13:48;;;;;;;19.23;11.23;;;2.90;97.40;;;;;;2072265;28;20178;-68
2021/10/17 01:14:48;;;;;;;17.27;10.73;;;2.80;97.30;;;;;;2080253;28;20182;-67
2021/10/17 01:15:55;;;;;;;16.17;10.37;;;2.80;97.30;;;;;;2080873;28;20223;-68
2021/10/17 01:16:56;;;;;;;18.20;10.50;;;2.80;97.30;;;;;;2080779;28;20182;-68
2021/10/17 01:17:57;;;;;;;15.90;10.30;;;2.80;97.20;;;;;;2081804;28;20223;-68
2021/10/17 01:18:58;;;;;;;18.80;10.97;;;2.80;97.20;;;;;;2082515;28;20203;-67
2021/10/17 01:19:59;;;;;;;17.47;10.90;;;2.70;97.20;;;;;;2081824;28;20550;-68
2021/10/17 01:21:00;;;;;;;19.58;12.00;;;2.70;97.30;;;;;;2081710;28;20170;-68
2021/10/17 01:22:03;;;;;;;16.50;10.20;;;2.70;97.30;;;;;;2081806;28;20650;-68
2021/10/17 01:23:04;;;;;;;20.77;11.60;;;2.70;97.30;;;;;;2073993;28;20232;-68
2021/10/17 01:24:06;;;;;;;21.70;12.87;;;2.70;97.40;;;;;;2082011;28;20233;-68
2021/10/17 01:25:08;;;;;;;21.80;11.70;;;2.70;97.40;;;;;;2081689;28;20176;-68
2021/10/17 01:26:11;;;;;;;19.88;11.75;;;2.70;97.20;;;;;;2073960;28;20549;-68
2021/10/17 01:27:11;;;;;;;17.48;11.40;;;2.70;97.20;;;;;;2074136;28;20467;-67
2021/10/17 01:28:13;;;;;;;20.47;11.93;;;2.70;97.20;;;;;;2081862;28;20211;-68
2021/10/17 01:29:14;;;;;;;21.63;12.68;;;2.60;97.30;;;;;;2081797;28;20187;-68
2021/10/17 01:30:17;;;;;;;21.55;12.70;;;2.70;97.20;;;;;;2081850;28;20216;-68
2021/10/17 01:31:18;;;;;;;20.33;13.00;;;2.70;97.30;;;;;;2082161;28;20228;-68
2021/10/17 01:32:19;;;;;;;19.13;11.57;;;2.70;97.20;;;;;;2082235;28;20205;-68
2021/10/17 01:33:20;;;;;;;23.30;13.70;;;2.70;97.10;;;;;;2081752;28;20185;-68
2021/10/17 01:34:24;;;;;;;22.03;11.87;;;2.70;97.10;;;;;;2081817;28;20691;-68
2021/10/17 01:35:25;;;;;;;20.88;12.93;;;2.70;97.20;;;;;;2082189;28;20208;-68
2021/10/17 01:36:26;;;;;;;21.07;12.23;;;2.60;97.20;;;;;;2082215;28;20723;-68
2021/10/17 01:37:27;;;;;;;20.87;12.43;;;2.60;97.10;;;;;;2081728;28;20173;-68
2021/10/17 01:38:27;;;;;;;24.77;12.43;;;2.60;97.30;;;;;;2081881;28;20201;-68
2021/10/17 01:39:28;;;;;;;21.93;12.97;;;2.60;97.30;;;;;;2081713;28;20236;-68
2021/10/17 01:40:29;;;;;;;26.73;14.00;;;2.60;97.30;;;;;;2073613;28;20585;-68
2021/10/17 01:41:30;;;;;;;20.17;12.27;;;2.60;97.20;;;;;;2073245;28;20193;-68
2021/10/17 01:42:31;;;;;;;22.00;12.47;;;2.70;97.30;;;;;;2073515;28;20187;-68
2021/10/17 01:43:31;;;;;;;20.60;12.67;;;2.60;97.40;;;;;;2081732;28;20227;-68
2021/10/17 01:44:34;;;;;;;19.43;12.27;;;2.60;97.70;;;;;;2081622;28;20224;-68
2021/10/17 01:45:36;;;;;;;20.88;13.05;;;2.60;97.50;;;;;;2073704;28;20198;-68
2021/10/17 01:46:37;;;;;;;22.55;13.10;;;2.70;97.60;;;;;;2081628;28;20272;-68
2021/10/17 01:47:48;;;;;;;25.52;15.02;;;2.70;97.70;;;;;;2081585;28;20184;-68
2021/10/17 01:48:49;;;;;;;25.65;13.95;;;2.60;97.70;;;;;;2074791;28;20625;-68
2021/10/17 01:49:49;;;;;;;24.13;14.37;;;2.70;97.70;;;;;;2081671;28;20256;-67
2021/10/17 01:50:50;;;;;;;27.13;15.23;;;2.60;97.70;;;;;;2082301;28;20235;-67
2021/10/17 01:51:51;;;;;;;24.43;14.77;;;2.70;97.90;;;;;;2081917;28;20235;-68
2021/10/17 01:52:51;;;;;;;24.97;14.40;;;2.70;98.00;;;;;;2082293;28;20184;-68
2021/10/17 01:53:52;;;;;;;22.73;13.23;;;2.70;97.90;;;;;;2081599;28;20186;-68
2021/10/17 01:54:53;;;;;;;23.20;13.77;;;2.70;98.00;;;;;;2081843;28;20624;-68
2021/10/17 01:55:59;;;;;;;25.73;14.30;;;2.70;97.90;;;;;;2082025;28;20767;-67
2021/10/17 01:56:59;;;;;;;24.52;13.57;;;2.70;97.70;;;;;;2082255;28;20216;-68
2021/10/17 01:58:00;;;;;;;26.63;13.97;;;2.70;97.60;;;;;;2082082;28;20196;-68
2021/10/17 01:59:02;;;;;;;27.47;15.17;;;2.80;97.50;;;;;;2081525;28;20174;-68
2021/10/17 02:00:06;;;;;;;24.55;15.18;;;2.80;97.30;;;;;;2065208;28;20713;-68
2021/10/17 02:01:07;;;;;;;24.95;13.63;;;2.80;97.40;;;;;;2073601;28;20595;-68
2021/10/17 02:02:08;;;;;;;25.60;14.80;;;2.80;97.40;;;;;;2081539;28;20260;-68
2021/10/17 02:03:08;;;;;;;23.70;13.60;;;2.80;97.40;;;;;;2081558;28;20185;-68
2021/10/17 02:04:09;;;;;;;25.40;13.43;;;2.80;97.40;;;;;;2082084;28;20270;-68
2021/10/17 02:05:10;;;;;;;19.67;13.00;;;2.80;97.50;;;;;;2082054;28;20272;-68
2021/10/17 02:06:11;;;;;;;22.93;13.77;;;2.70;97.40;;;;;;2082111;28;20248;-68
2021/10/17 02:07:11;;;;;;;23.07;12.63;;;2.70;97.40;;;;;;2082159;28;20183;-68
2021/10/17 02:08:12;;;;;;;20.13;12.67;;;2.80;97.30;;;;;;2081896;28;20181;-68
2021/10/17 02:09:13;;;;;;;19.30;11.80;;;2.80;97.00;;;;;;2082090;28;20169;-68
2021/10/17 02:10:13;;;;;;;24.20;11.47;;;2.80;96.90;;;;;;2081444;28;20532;-68
2021/10/17 02:11:14;;;;;;;22.33;12.80;;;2.80;96.70;;;;;;2081345;28;20224;-68
2021/10/17 02:12:21;;;;;;;25.73;13.77;;;2.80;96.80;;;;;;2082121;28;20648;-68
2021/10/17 02:13:21;;;;;;;24.33;13.55;;;2.80;97.00;;;;;;2081574;28;20216;-68
2021/10/17 02:14:22;;;;;;;25.27;13.83;;;2.80;97.20;;;;;;2081453;28;20183;-67
2021/10/17 02:15:23;;;;;;;23.13;13.47;;;2.80;97.30;;;;;;2081911;28;20770;-68
2021/10/17 02:16:23;;;;;;;27.17;13.97;;;2.80;97.40;;;;;;2080202;28;20227;-68
2021/10/17 02:17:24;;;;;;;28.57;15.00;;;2.80;97.40;;;;;;2081283;28;20210;-68
2021/10/17 02:18:25;;;;;;;38.17;16.43;;;2.80;97.70;;;;;;2081192;28;20627;-67
2021/10/17 02:19:26;;;;;;;25.07;14.37;;;2.80;97.90;;;;;;2081238;28;20224;-67
2021/10/17 02:20:26;;;;;;;29.03;16.90;;;2.80;97.80;;;;;;2081375;28;20271;-68
2021/10/17 02:21:27;;;;;;;198.17;29.63;;;2.80;97.80;;;;;;2081770;28;20184;-67
2021/10/17 02:22:28;;;;;;;84.97;28.37;;;2.80;97.90;;;;;;2082091;28;20226;-68
2021/10/17 02:23:29;;;;;;;56.50;20.30;;;2.90;98.00;;;;;;2081982;28;20197;-67
2021/10/17 02:24:29;;;;;;;108.07;30.27;;;2.90;98.10;;;;;;2081950;28;20178;-68
2021/10/17 02:25:31;;;;;;;95.30;27.23;;;2.90;98.10;;;;;;2081904;28;20747;-68
2021/10/17 02:26:32;;;;;;;173.65;36.90;;;3.00;98.10;;;;;;2081474;28;20191;-68
2021/10/17 02:27:33;;;;;;;91.27;27.57;;;3.00;98.00;;;;;;2081167;28;20286;-68
2021/10/17 02:28:34;;;;;;;280.47;53.57;;;3.00;98.10;;;;;;2081784;28;20193;-68
2021/10/17 02:29:35;;;;;;;280.75;46.42;;;3.00;98.10;;;;;;2081316;28;20210;-68
2021/10/17 02:30:36;;;;;;;277.53;49.97;;;3.10;98.30;;;;;;2081329;28;20178;-68
2021/10/17 02:31:36;;;;;;;189.97;33.73;;;3.10;98.30;;;;;;2081567;28;20193;-67
2021/10/17 02:32:37;;;;;;;197.77;42.53;;;3.10;98.20;;;;;;2081372;28;20184;-68
2021/10/17 02:33:39;;;;;;;354.80;53.93;;;3.10;98.10;;;;;;2081229;28;20629;-68
2021/10/17 02:34:39;;;;;;;97.00;29.50;;;3.20;98.00;;;;;;2081304;28;20192;-68
2021/10/17 02:35:40;;;;;;;71.13;26.67;;;3.20;97.90;;;;;;2080962;28;20286;-68
2021/10/17 02:36:41;;;;;;;86.93;29.00;;;3.20;97.70;;;;;;2081805;28;20230;-68
2021/10/17 02:37:42;;;;;;;62.57;22.53;;;3.20;97.60;;;;;;2081841;28;20678;-68
2021/10/17 02:38:43;;;;;;;110.75;27.52;;;3.20;97.60;;;;;;2081805;28;20245;-68
2021/10/17 02:39:44;;;;;;;94.77;24.90;;;3.20;97.60;;;;;;2081776;28;20191;-68
2021/10/17 02:40:44;;;;;;;274.43;44.10;;;3.10;97.60;;;;;;2081707;28;20177;-68
2021/10/17 02:41:45;;;;;;;208.33;45.43;;;3.20;97.60;;;;;;2081580;28;20653;-68
2021/10/17 02:42:46;;;;;;;68.13;23.60;;;3.20;97.40;;;;;;2081833;28;20201;-68
2021/10/17 02:43:46;;;;;;;65.83;24.10;;;3.10;97.30;;;;;;2081720;28;20651;-67
2021/10/17 02:44:47;;;;;;;51.00;22.27;;;3.10;97.40;;;;;;2081745;28;20174;-67
2021/10/17 02:45:49;;;;;;;49.30;21.53;;;3.20;97.30;;;;;;2081502;28;20205;-67
2021/10/17 02:46:50;;;;;;;59.38;23.80;;;3.10;97.30;;;;;;2081280;28;20179;-68
2021/10/17 02:47:51;;;;;;;166.63;31.50;;;3.10;97.40;;;;;;2081171;28;20632;-68
2021/10/17 02:48:52;;;;;;;72.95;26.90;;;3.00;97.40;;;;;;2081082;28;20182;-67
2021/10/17 02:49:53;;;;;;;94.03;27.97;;;3.00;97.50;;;;;;2081084;28;20177;-67
2021/10/17 02:50:54;;;;;;;84.95;26.45;;;3.00;97.50;;;;;;2081669;28;20301;-68
2021/10/17 02:51:55;;;;;;;125.23;32.83;;;3.00;97.50;;;;;;2080807;28;20243;-68
2021/10/17 02:52:55;;;;;;;137.40;33.50;;;3.00;97.50;;;;;;2081151;28;20177;-68
2021/10/17 02:53:56;;;;;;;133.63;32.63;;;3.00;97.60;;;;;;2081011;28;20626;-68
2021/10/17 02:54:57;;;;;;;104.00;27.43;;;2.90;97.50;;;;;;2080865;28;20185;-67
2021/10/17 02:55:57;;;;;;;71.90;23.47;;;2.90;97.50;;;;;;2073327;28;20211;-67
2021/10/17 02:56:58;;;;;;;74.90;28.33;;;2.90;97.40;;;;;;2073500;28;20552;-67
2021/10/17 02:57:59;;;;;;;76.20;25.80;;;2.90;97.30;;;;;;2073426;28;20642;-68
2021/10/17 02:58:59;;;;;;;43.80;20.73;;;2.90;97.30;;;;;;2080476;28;20178;-67
2021/10/17 03:00:00;;;;;;;63.50;22.53;;;2.90;97.20;;;;;;2081609;28;20219;-68
2021/10/17 03:01:01;;;;;;;46.33;19.43;;;2.90;97.10;;;;;;2081504;28;20176;-68
2021/10/17 03:02:01;;;;;;;57.47;22.70;;;2.90;97.10;;;;;;2081593;28;20180;-68
2021/10/17 03:03:04;;;;;;;43.00;20.20;;;2.90;97.10;;;;;;2081589;28;20547;-68
2021/10/17 03:04:04;;;;;;;38.22;20.48;;;2.80;97.00;;;;;;2081102;28;20184;-68
2021/10/17 03:05:06;;;;;;;45.87;19.40;;;2.80;97.00;;;;;;2080968;28;20188;-67
2021/10/17 03:06:06;;;;;;;48.05;20.02;;;2.80;96.90;;;;;;2081752;28;20176;-68
2021/10/17 03:07:07;;;;;;;44.03;20.93;;;2.80;96.90;;;;;;2081533;28;20601;-68
2021/10/17 03:08:08;;;;;;;48.60;20.77;;;2.70;97.00;;;;;;2081703;28;20529;-67
2021/10/17 03:09:08;;;;;;;42.60;20.30;;;2.70;97.00;;;;;;2081595;28;20172;-68
2021/10/17 03:10:10;;;;;;;34.27;17.87;;;2.70;97.00;;;;;;2081652;28;20593;-68
2021/10/17 03:11:11;;;;;;;35.35;19.05;;;2.70;97.00;;;;;;2081292;28;20220;-68
2021/10/17 03:12:11;;;;;;;34.97;17.03;;;2.70;97.00;;;;;;2081623;28;20181;-67
2021/10/17 03:13:12;;;;;;;36.30;18.20;;;2.60;96.90;;;;;;2081593;28;20170;-68
2021/10/17 03:14:13;;;;;;;39.30;19.73;;;2.70;96.60;;;;;;2081664;28;20554;-68
2021/10/17 03:15:14;;;;;;;36.72;17.60;;;2.70;97.10;;;;;;2080678;28;20216;-67
2021/10/17 03:16:14;;;;;;;43.23;20.57;;;2.60;96.50;;;;;;2081060;28;20177;-68
2021/10/17 03:17:15;;;;;;;54.87;19.77;;;2.60;96.60;;;;;;2081659;28;20180;-67
2021/10/17 03:18:16;;;;;;;91.67;29.20;;;2.60;96.70;;;;;;2081515;28;20625;-68
2021/10/17 03:19:16;;;;;;;49.40;21.20;;;2.60;97.40;;;;;;2081479;28;20201;-68
2021/10/17 03:20:17;;;;;;;39.43;18.97;;;2.60;96.90;;;;;;2081572;28;20559;-67
2021/10/17 03:21:18;;;;;;;53.90;21.07;;;2.60;96.80;;;;;;2080569;28;20177;-67
2021/10/17 03:22:19;;;;;;;103.73;29.37;;;2.60;96.90;;;;;;2080885;28;20644;-67
2021/10/17 03:23:19;;;;;;;80.03;22.33;;;2.60;96.90;;;;;;2081422;28;20514;-68
2021/10/17 03:24:20;;;;;;;62.07;20.53;;;2.60;97.00;;;;;;2081643;28;20174;-67
2021/10/17 03:25:21;;;;;;;51.20;20.57;;;2.60;97.00;;;;;;2081575;28;21101;-68
2021/10/17 03:26:21;;;;;;;44.67;20.27;;;2.50;96.80;;;;;;2080836;28;20193;-68
2021/10/17 03:27:22;;;;;;;49.30;19.53;;;2.60;97.00;;;;;;2080752;28;20177;-68
2021/10/17 03:28:23;;;;;;;32.13;17.57;;;2.60;96.80;;;;;;2081328;28;20187;-68
2021/10/17 03:29:24;;;;;;;37.75;18.02;;;2.60;96.90;;;;;;2080675;28;20209;-68
2021/10/17 03:30:24;;;;;;;43.13;19.37;;;2.60;96.90;;;;;;2080902;28;20581;-67
2021/10/17 03:31:26;;;;;;;54.57;21.47;;;2.60;97.00;;;;;;2080638;28;20184;-68
2021/10/17 03:32:26;;;;;;;66.05;23.58;;;2.60;97.20;;;;;;2080991;28;20598;-68
2021/10/17 03:33:27;;;;;;;86.07;27.50;;;2.60;97.50;;;;;;2081481;28;20254;-67
2021/10/17 03:34:28;;;;;;;114.10;31.60;;;2.60;97.50;;;;;;2081325;28;20196;-68
2021/10/17 03:35:28;;;;;;;54.20;22.03;;;2.60;97.50;;;;;;2080583;28;20300;-68
2021/10/17 03:36:29;;;;;;;81.00;26.27;;;2.60;97.50;;;;;;2072734;28;20174;-68
2021/10/17 03:37:31;;;;;;;61.87;22.20;;;2.60;97.50;;;;;;2080846;28;20184;-68
2021/10/17 03:38:32;;;;;;;69.07;22.27;;;2.60;97.40;;;;;;2081387;28;20257;-67
2021/10/17 03:39:32;;;;;;;52.97;21.07;;;2.60;97.40;;;;;;2080744;28;20185;-68
2021/10/17 03:40:33;;;;;;;60.30;21.77;;;2.60;97.50;;;;;;2081207;28;20208;-68
2021/10/17 03:41:34;;;;;;;95.87;26.10;;;2.60;97.70;;;;;;2080579;28;20203;-67
2021/10/17 03:42:34;;;;;;;51.13;22.70;;;2.50;97.70;;;;;;2080864;28;20610;-67
2021/10/17 03:43:35;;;;;;;53.97;23.30;;;2.50;97.70;;;;;;2081370;28;20177;-67
2021/10/17 03:44:36;;;;;;;46.30;21.63;;;2.50;97.60;;;;;;2081158;28;20305;-67
2021/10/17 03:45:36;;;;;;;43.03;20.97;;;2.50;97.40;;;;;;2080628;28;20712;-68
2021/10/17 03:46:37;;;;;;;40.27;20.30;;;2.60;97.50;;;;;;2080734;28;20259;-68
2021/10/17 03:47:38;;;;;;;61.53;26.40;;;2.50;97.60;;;;;;2081508;28;20183;-67
2021/10/17 03:48:38;;;;;;;42.67;21.37;;;2.60;97.60;;;;;;2081431;28;20180;-68
2021/10/17 03:49:40;;;;;;;40.77;19.93;;;2.60;98.00;;;;;;2081363;28;20181;-68
2021/10/17 03:50:41;;;;;;;60.08;23.77;;;2.60;97.40;;;;;;2081125;28;20665;-67
2021/10/17 03:51:41;;;;;;;30.67;17.08;;;2.60;97.30;;;;;;2080489;28;20189;-68
2021/10/17 03:52:42;;;;;;;32.17;17.63;;;2.60;97.30;;;;;;2080648;28;20341;-68
2021/10/17 03:53:43;;;;;;;34.73;17.87;;;2.60;97.20;;;;;;2081356;28;20196;-67
2021/10/17 03:54:44;;;;;;;32.30;17.90;;;2.60;97.00;;;;;;2080726;28;20173;-67
2021/10/17 03:55:44;;;;;;;36.17;18.47;;;2.60;97.00;;;;;;2080594;28;20212;-67
2021/10/17 03:56:45;;;;;;;30.30;16.83;;;2.60;97.00;;;;;;2080709;28;20170;-68
2021/10/17 03:57:46;;;;;;;54.03;20.37;;;2.60;96.90;;;;;;2080732;28;20177;-67
2021/10/17 03:58:46;;;;;;;93.97;25.50;;;2.60;96.90;;;;;;2081282;28;20173;-67
2021/10/17 03:59:47;;;;;;;149.70;30.03;;;2.50;96.80;;;;;;2081341;28;20636;-68
2021/10/17 04:00:48;;;;;;;196.67;29.23;;;2.50;97.20;;;;;;2081202;28;20437;-67
2021/10/17 04:01:48;;;;;;;67.47;24.10;;;2.50;97.20;;;;;;2081115;28;20177;-67
2021/10/17 04:02:50;;;;;;;59.87;22.50;;;2.40;97.20;;;;;;2081309;28;20223;-67
2021/10/17 04:03:50;;;;;;;76.28;25.90;;;2.40;97.20;;;;;;2081290;28;20540;-68
2021/10/17 04:04:51;;;;;;;108.33;26.63;;;2.40;97.20;;;;;;2081345;28;20214;-67
2021/10/17 04:05:52;;;;;;;57.70;21.77;;;2.40;97.10;;;;;;2081187;28;20207;-68
2021/10/17 04:06:52;;;;;;;57.53;22.37;;;2.40;97.10;;;;;;2081166;28;20177;-67
2021/10/17 04:07:53;;;;;;;149.03;29.33;;;2.40;97.10;;;;;;2081199;28;20639;-67
2021/10/17 04:08:54;;;;;;;379.30;55.70;;;2.40;97.20;;;;;;2081201;28;20268;-68
2021/10/17 04:09:54;;;;;;;128.07;27.87;;;2.30;97.20;;;;;;2081342;28;20652;-68
2021/10/17 04:10:55;;;;;;;230.50;42.40;;;2.30;97.40;;;;;;2080620;28;20249;-67
2021/10/17 04:11:56;;;;;;;178.20;35.63;;;2.30;97.40;;;;;;2072231;28;20272;-67
2021/10/17 04:12:56;;;;;;;145.33;33.20;;;2.30;97.50;;;;;;2080674;28;20747;-68
2021/10/17 04:13:57;;;;;;;57.27;21.97;;;2.20;97.50;;;;;;2081230;28;20188;-67
2021/10/17 04:14:58;;;;;;;159.33;26.10;;;2.30;97.50;;;;;;2081314;28;20234;-68
2021/10/17 04:15:59;;;;;;;120.93;32.77;;;2.30;97.40;;;;;;2080549;28;20221;-67
2021/10/17 04:17:00;;;;;;;113.20;32.88;;;2.20;97.20;;;;;;2080485;28;20177;-68
2021/10/17 04:18:00;;;;;;;49.27;21.80;;;2.20;97.10;;;;;;2081231;28;20188;-68
2021/10/17 04:19:03;;;;;;;49.67;20.03;;;2.20;97.10;;;;;;2080630;28;20424;-67
2021/10/17 04:20:05;;;;;;;53.58;22.08;;;2.30;97.00;;;;;;2080683;28;20180;-68
2021/10/17 04:21:06;;;;;;;37.33;20.08;;;2.20;97.00;;;;;;2080450;28;20304;-68
2021/10/17 04:22:07;;;;;;;40.00;20.37;;;2.20;97.00;;;;;;2072406;28;20189;-68
2021/10/17 04:23:07;;;;;;;37.30;18.43;;;2.20;97.00;;;;;;2080607;28;20181;-67
2021/10/17 04:24:08;;;;;;;39.20;19.90;;;2.20;96.90;;;;;;2081248;28;20177;-67
2021/10/17 04:25:09;;;;;;;39.00;19.80;;;2.20;96.90;;;;;;2081208;28;20260;-68
2021/10/17 04:26:10;;;;;;;39.13;18.97;;;2.20;96.80;;;;;;2080595;28;20189;-67
2021/10/17 04:27:11;;;;;;;47.77;20.67;;;2.20;96.80;;;;;;2080648;28;20443;-68
2021/10/17 04:28:11;;;;;;;37.10;18.88;;;2.20;96.80;;;;;;2080464;28;20178;-68
2021/10/17 04:29:12;;;;;;;114.90;27.63;;;2.20;96.90;;;;;;2080665;28;20649;-67
2021/10/17 04:30:13;;;;;;;80.50;23.53;;;2.20;96.80;;;;;;2081137;28;20205;-68
2021/10/17 04:31:14;;;;;;;82.20;24.40;;;2.20;96.70;;;;;;2081110;28;20183;-67
2021/10/17 04:32:15;;;;;;;80.90;25.10;;;2.20;96.70;;;;;;2081212;28;20714;-67
2021/10/17 04:33:15;;;;;;;59.93;21.53;;;2.30;96.80;;;;;;2081222;28;20192;-67
2021/10/17 04:34:16;;;;;;;65.73;22.83;;;2.20;96.90;;;;;;2081116;28;20173;-68
2021/10/17 04:35:17;;;;;;;38.33;18.03;;;2.20;96.90;;;;;;2080346;28;20181;-67
2021/10/17 04:36:17;;;;;;;44.53;19.97;;;2.20;97.00;;;;;;2080621;28;20558;-67
2021/10/17 04:37:18;;;;;;;53.03;20.90;;;2.30;97.10;;;;;;2081142;28;20177;-68
2021/10/17 04:38:19;;;;;;;106.43;27.10;;;2.30;97.10;;;;;;2081073;28;20181;-67
2021/10/17 04:39:20;;;;;;;55.07;20.37;;;2.30;97.10;;;;;;2080607;28;20181;-67
2021/10/17 04:40:21;;;;;;;102.13;26.67;;;2.30;97.10;;;;;;2072388;28;20311;-67
2021/10/17 04:41:22;;;;;;;116.10;30.50;;;2.30;97.20;;;;;;2080324;28;20476;-68
2021/10/17 04:42:23;;;;;;;106.40;29.03;;;2.30;97.10;;;;;;2081103;28;20558;-67
2021/10/17 04:43:23;;;;;;;140.30;32.43;;;2.30;97.20;;;;;;2080531;28;20549;-67
2021/10/17 04:44:24;;;;;;;212.93;39.33;;;2.30;97.20;;;;;;2080447;28;20173;-68
2021/10/17 04:45:25;;;;;;;128.60;25.13;;;2.40;97.20;;;;;;2079528;28;20235;-67
2021/10/17 04:48:41;;;;;;;57.55;20.00;;;2.40;97.20;;;;;;2074745;28;20189;-67
2021/10/17 04:49:42;;;;;;;131.33;28.47;;;2.30;97.20;;;;;;2081077;28;20177;-67
2021/10/17 04:50:43;;;;;;;196.90;32.20;;;2.30;97.30;;;;;;2080870;28;20204;-67
2021/10/17 04:51:44;;;;;;;50.67;19.80;;;2.30;97.30;;;;;;2082445;28;20196;-67
2021/10/17 04:52:46;;;;;;;63.13;20.77;;;2.30;97.30;;;;;;2082551;28;20231;-68
2021/10/17 04:53:47;;;;;;;51.22;20.40;;;2.30;97.30;;;;;;2082040;28;20181;-68
2021/10/17 04:54:48;;;;;;;171.27;25.90;;;2.30;97.30;;;;;;2081611;28;20185;-67
2021/10/17 04:55:49;;;;;;;54.27;19.33;;;2.30;97.20;;;;;;2082516;28;20208;-67
2021/10/17 04:56:50;;;;;;;49.43;18.90;;;2.30;97.30;;;;;;2082709;28;20206;-67
2021/10/17 04:57:50;;;;;;;203.80;33.00;;;2.30;97.30;;;;;;2082672;28;20643;-68
2021/10/17 04:58:51;;;;;;;113.17;28.20;;;2.30;97.30;;;;;;2082743;28;20181;-67
2021/10/17 04:59:52;;;;;;;214.33;42.13;;;2.30;97.30;;;;;;2082710;28;20181;-67
2021/10/17 05:00:52;;;;;;;106.60;26.50;;;2.30;97.40;;;;;;2082658;28;20187;-67
2021/10/17 05:01:53;;;;;;;135.17;30.40;;;2.30;97.40;;;;;;2082437;28;20200;-67
2021/10/17 05:02:54;;;;;;;70.07;24.37;;;2.30;97.30;;;;;;2082539;28;20636;-67
2021/10/17 05:03:54;;;;;;;75.27;23.83;;;2.30;97.20;;;;;;2081996;28;20181;-68
2021/10/17 05:04:55;;;;;;;61.63;20.33;;;2.30;97.00;;;;;;2081983;28;20263;-67
2021/10/17 05:05:56;;;;;;;40.90;19.17;;;2.30;97.00;;;;;;2081810;28;20795;-67
2021/10/17 05:06:56;;;;;;;47.07;19.30;;;2.30;97.10;;;;;;2081843;28;20239;-68
2021/10/17 05:07:57;;;;;;;34.93;17.47;;;2.20;97.10;;;;;;2082405;28;20315;-67
2021/10/17 05:08:58;;;;;;;39.77;18.90;;;2.20;97.20;;;;;;2082467;28;20178;-67
2021/10/17 05:09:58;;;;;;;60.60;22.10;;;2.20;97.30;;;;;;2081814;28;20260;-67
2021/10/17 05:11:00;;;;;;;90.13;24.60;;;2.20;97.30;;;;;;2081791;28;20177;-68
2021/10/17 05:12:01;;;;;;;72.35;20.38;;;2.10;97.20;;;;;;2082308;28;20739;-68
2021/10/17 05:13:01;;;;;;;59.47;21.90;;;2.20;97.20;;;;;;2082496;28;20177;-68
2021/10/17 05:14:02;;;;;;;33.93;16.70;;;2.20;97.20;;;;;;2082476;28;20177;-67
2021/10/17 05:15:04;;;;;;;37.80;18.35;;;2.20;97.10;;;;;;2082373;28;20207;-68
2021/10/17 05:16:04;;;;;;;36.95;18.13;;;2.20;97.10;;;;;;2082246;28;20247;-67